EFPO

Pori Airport

Pori, Finland
METAR EFPO 161320Z AUTO 12011KT 9999 OVC017/// M04/M08 Q1030
Observed Flight Rules
Dec-16 @ 13:20 UTC (35 minutes ago) Marginal Visual Flight Rules
Wind Visibility Clouds
120° at 11 knots 10,000+ meters
  • Overcast at 1,700' AGL
Temperatures Readings
Current -4°C / 25°F
Dewpoint -8°C / 18°F
Humidity 74%
Altimeter 30.41" Hg
Pressure 1030 hPa
Elevation 17
METAR EFPO 161320Z AUTO 12011KT 9999 OVC017/// M04/M08 Q1030
Observed Flight Rules
Dec-16 @ 13:20 UTC
(35 minutes ago)
MVFR
Wind Visibility
120° at 11 knots 10,000+ meters
Clouds
  • Overcast at 1,700' AGL
Temperature Dewpoint
-4°C / 25°F -8°C / 18°F
Humidity Altimeter Pressure
74% 30.41" Hg 1030 hPa